sensor_id;sensor_type;location;lat;lon;timestamp;temperature;humidity
10149;DHT22;5115;50.920;6.376;2023-03-20T00:01:21;11.20;99.90
10149;DHT22;5115;50.920;6.376;2023-03-20T00:03:47;11.30;99.90
10149;DHT22;5115;50.920;6.376;2023-03-20T00:06:20;11.20;99.90
10149;DHT22;5115;50.920;6.376;2023-03-20T00:08:47;11.10;99.90
10149;DHT22;5115;50.920;6.376;2023-03-20T00:13:42;11.10;99.90
10149;DHT22;5115;50.920;6.376;2023-03-20T00:16:09;11.20;99.90
10149;DHT22;5115;50.920;6.376;2023-03-20T00:18:35;11.10;99.90
10149;DHT22;5115;50.920;6.376;2023-03-20T00:21:00;11.10;99.90
10149;DHT22;5115;50.920;6.376;2023-03-20T00:23:26;11.10;99.90
10149;DHT22;5115;50.920;6.376;2023-03-20T00:25:52;11.00;99.90
10149;DHT22;5115;50.920;6.376;2023-03-20T00:28:34;11.10;99.90
10149;DHT22;5115;50.920;6.376;2023-03-20T00:31:04;11.10;99.90
10149;DHT22;5115;50.920;6.376;2023-03-20T00:33:31;11.10;99.90
10149;DHT22;5115;50.920;6.376;2023-03-20T00:35:56;11.10;99.90
10149;DHT22;5115;50.920;6.376;2023-03-20T00:38:23;11.00;99.90
10149;DHT22;5115;50.920;6.376;2023-03-20T00:40:49;11.00;99.90
10149;DHT22;5115;50.920;6.376;2023-03-20T00:43:15;11.00;99.90
10149;DHT22;5115;50.920;6.376;2023-03-20T00:45:43;11.00;99.90
10149;DHT22;5115;50.920;6.376;2023-03-20T00:48:12;11.10;99.90
10149;DHT22;5115;50.920;6.376;2023-03-20T00:50:38;11.00;99.90
10149;DHT22;5115;50.920;6.376;2023-03-20T00:53:05;11.00;99.90
10149;DHT22;5115;50.920;6.376;2023-03-20T00:55:30;10.90;99.90
10149;DHT22;5115;50.920;6.376;2023-03-20T00:57:58;10.90;99.90
10149;DHT22;5115;50.920;6.376;2023-03-20T01:00:42;10.90;99.90
10149;DHT22;5115;50.920;6.376;2023-03-20T01:03:17;10.90;99.90
10149;DHT22;5115;50.920;6.376;2023-03-20T01:05:43;10.80;99.90
10149;DHT22;5115;50.920;6.376;2023-03-20T01:08:12;10.80;99.90
10149;DHT22;5115;50.920;6.376;2023-03-20T01:10:39;10.90;99.90
10149;DHT22;5115;50.920;6.376;2023-03-20T01:13:20;11.00;99.90
10149;DHT22;5115;50.920;6.376;2023-03-20T01:15:46;11.00;99.90
10149;DHT22;5115;50.920;6.376;2023-03-20T01:18:14;11.00;99.90
10149;DHT22;5115;50.920;6.376;2023-03-20T01:20:40;11.00;99.90
10149;DHT22;5115;50.920;6.376;2023-03-20T01:23:05;11.00;99.90
10149;DHT22;5115;50.920;6.376;2023-03-20T01:25:31;11.00;99.90
10149;DHT22;5115;50.920;6.376;2023-03-20T01:27:57;11.00;99.90
10149;DHT22;5115;50.920;6.376;2023-03-20T01:30:25;11.10;99.90
10149;DHT22;5115;50.920;6.376;2023-03-20T01:32:51;11.20;99.90
10149;DHT22;5115;50.920;6.376;2023-03-20T01:35:20;11.10;99.90
10149;DHT22;5115;50.920;6.376;2023-03-20T01:37:47;11.10;99.90
10149;DHT22;5115;50.920;6.376;2023-03-20T01:40:44;11.10;99.90
10149;DHT22;5115;50.920;6.376;2023-03-20T01:43:14;11.00;99.90
10149;DHT22;5115;50.920;6.376;2023-03-20T01:46:09;10.90;99.90
10149;DHT22;5115;50.920;6.376;2023-03-20T01:51:26;10.90;99.90
10149;DHT22;5115;50.920;6.376;2023-03-20T01:54:05;10.90;99.90
10149;DHT22;5115;50.920;6.376;2023-03-20T01:56:36;10.80;99.90
10149;DHT22;5115;50.920;6.376;2023-03-20T01:59:10;10.90;99.90
10149;DHT22;5115;50.920;6.376;2023-03-20T02:01:38;10.80;99.90
10149;DHT22;5115;50.920;6.376;2023-03-20T02:04:05;10.80;99.90
10149;DHT22;5115;50.920;6.376;2023-03-20T02:06:31;10.80;99.90
10149;DHT22;5115;50.920;6.376;2023-03-20T02:08:57;10.70;99.90
10149;DHT22;5115;50.920;6.376;2023-03-20T02:11:24;10.70;99.90
10149;DHT22;5115;50.920;6.376;2023-03-20T02:13:56;10.70;99.90
10149;DHT22;5115;50.920;6.376;2023-03-20T02:16:22;10.60;99.90
10149;DHT22;5115;50.920;6.376;2023-03-20T02:18:50;10.60;99.90
10149;DHT22;5115;50.920;6.376;2023-03-20T02:35:25;10.30;99.90
10149;DHT22;5115;50.920;6.376;2023-03-20T02:38:14;10.20;99.90
10149;DHT22;5115;50.920;6.376;2023-03-20T02:57:17;9.90;99.90
10149;DHT22;5115;50.920;6.376;2023-03-20T03:00:01;9.80;99.90
10149;DHT22;5115;50.920;6.376;2023-03-20T03:02:36;9.80;99.90
10149;DHT22;5115;50.920;6.376;2023-03-20T03:05:24;9.80;99.90
10149;DHT22;5115;50.920;6.376;2023-03-20T03:07:55;9.80;99.90
10149;DHT22;5115;50.920;6.376;2023-03-20T03:10:26;9.70;99.90
10149;DHT22;5115;50.920;6.376;2023-03-20T03:12:55;9.70;99.90
10149;DHT22;5115;50.920;6.376;2023-03-20T03:15:27;9.70;99.90
10149;DHT22;5115;50.920;6.376;2023-03-20T03:17:56;9.60;99.90
10149;DHT22;5115;50.920;6.376;2023-03-20T03:20:25;9.60;99.90
10149;DHT22;5115;50.920;6.376;2023-03-20T03:22:52;9.60;99.90
10149;DHT22;5115;50.920;6.376;2023-03-20T03:25:20;9.70;99.90
10149;DHT22;5115;50.920;6.376;2023-03-20T03:27:55;9.60;99.90
10149;DHT22;5115;50.920;6.376;2023-03-20T03:30:32;9.60;99.90
10149;DHT22;5115;50.920;6.376;2023-03-20T03:33:15;9.50;99.90
10149;DHT22;5115;50.920;6.376;2023-03-20T03:35:45;9.50;99.90
10149;DHT22;5115;50.920;6.376;2023-03-20T03:39:09;9.50;99.90
10149;DHT22;5115;50.920;6.376;2023-03-20T03:41:26;9.40;99.90
10149;DHT22;5115;50.920;6.376;2023-03-20T03:46:59;9.30;99.90
10149;DHT22;5115;50.920;6.376;2023-03-20T03:49:31;9.40;99.90
10149;DHT22;5115;50.920;6.376;2023-03-20T03:52:02;9.30;99.90
10149;DHT22;5115;50.920;6.376;2023-03-20T03:54:36;9.40;99.90
10149;DHT22;5115;50.920;6.376;2023-03-20T03:57:03;9.40;99.90
10149;DHT22;5115;50.920;6.376;2023-03-20T03:59:37;9.30;99.90
10149;DHT22;5115;50.920;6.376;2023-03-20T04:02:04;9.30;99.90
10149;DHT22;5115;50.920;6.376;2023-03-20T04:04:31;9.30;99.90
10149;DHT22;5115;50.920;6.376;2023-03-20T04:06:57;9.30;99.90
10149;DHT22;5115;50.920;6.376;2023-03-20T04:09:22;9.20;99.90
10149;DHT22;5115;50.920;6.376;2023-03-20T04:11:52;9.20;99.90
10149;DHT22;5115;50.920;6.376;2023-03-20T04:14:18;9.20;99.90
10149;DHT22;5115;50.920;6.376;2023-03-20T04:16:43;9.20;99.90
10149;DHT22;5115;50.920;6.376;2023-03-20T04:19:09;9.20;99.90
10149;DHT22;5115;50.920;6.376;2023-03-20T04:21:35;9.20;99.90
10149;DHT22;5115;50.920;6.376;2023-03-20T04:24:00;9.10;99.90
10149;DHT22;5115;50.920;6.376;2023-03-20T04:26:26;9.10;99.90
10149;DHT22;5115;50.920;6.376;2023-03-20T04:28:52;9.00;99.90
10149;DHT22;5115;50.920;6.376;2023-03-20T04:31:18;9.00;99.90
10149;DHT22;5115;50.920;6.376;2023-03-20T04:33:43;9.00;99.90
10149;DHT22;5115;50.920;6.376;2023-03-20T04:36:09;9.10;99.90
10149;DHT22;5115;50.920;6.376;2023-03-20T04:38:35;9.10;99.90
10149;DHT22;5115;50.920;6.376;2023-03-20T04:41:01;9.10;99.90
10149;DHT22;5115;50.920;6.376;2023-03-20T04:43:27;9.10;99.90
10149;DHT22;5115;50.920;6.376;2023-03-20T04:45:52;9.10;99.90
10149;DHT22;5115;50.920;6.376;2023-03-20T04:48:18;9.10;99.90
10149;DHT22;5115;50.920;6.376;2023-03-20T04:50:43;9.10;99.90
10149;DHT22;5115;50.920;6.376;2023-03-20T04:53:13;9.10;99.90
10149;DHT22;5115;50.920;6.376;2023-03-20T04:55:38;9.00;99.90
10149;DHT22;5115;50.920;6.376;2023-03-20T04:58:04;9.00;99.90
10149;DHT22;5115;50.920;6.376;2023-03-20T05:00:30;9.00;99.90
10149;DHT22;5115;50.920;6.376;2023-03-20T05:02:56;9.00;99.90
10149;DHT22;5115;50.920;6.376;2023-03-20T05:05:21;9.00;99.90
10149;DHT22;5115;50.920;6.376;2023-03-20T05:07:48;8.90;99.90
10149;DHT22;5115;50.920;6.376;2023-03-20T05:10:14;8.80;99.90
10149;DHT22;5115;50.920;6.376;2023-03-20T05:12:39;8.80;99.90
10149;DHT22;5115;50.920;6.376;2023-03-20T05:15:05;8.80;99.90
10149;DHT22;5115;50.920;6.376;2023-03-20T05:17:31;8.70;99.90
10149;DHT22;5115;50.920;6.376;2023-03-20T05:19:57;8.70;99.90
10149;DHT22;5115;50.920;6.376;2023-03-20T05:22:22;8.70;99.90
10149;DHT22;5115;50.920;6.376;2023-03-20T05:24:48;8.70;99.90
10149;DHT22;5115;50.920;6.376;2023-03-20T05:27:13;8.60;99.90
10149;DHT22;5115;50.920;6.376;2023-03-20T05:29:39;8.60;99.90
10149;DHT22;5115;50.920;6.376;2023-03-20T05:32:05;8.70;99.90
10149;DHT22;5115;50.920;6.376;2023-03-20T05:34:30;8.70;99.90
10149;DHT22;5115;50.920;6.376;2023-03-20T05:36:56;8.70;99.90
10149;DHT22;5115;50.920;6.376;2023-03-20T05:39:21;8.70;99.90
10149;DHT22;5115;50.920;6.376;2023-03-20T05:41:47;8.80;99.90
10149;DHT22;5115;50.920;6.376;2023-03-20T05:44:13;8.90;99.90
10149;DHT22;5115;50.920;6.376;2023-03-20T05:46:38;8.90;99.90
10149;DHT22;5115;50.920;6.376;2023-03-20T05:49:04;8.90;99.90
10149;DHT22;5115;50.920;6.376;2023-03-20T05:51:29;8.80;99.90
10149;DHT22;5115;50.920;6.376;2023-03-20T05:53:55;8.90;99.90
10149;DHT22;5115;50.920;6.376;2023-03-20T05:56:21;9.00;99.90
10149;DHT22;5115;50.920;6.376;2023-03-20T05:58:46;9.00;99.90
10149;DHT22;5115;50.920;6.376;2023-03-20T06:01:12;9.00;99.90
10149;DHT22;5115;50.920;6.376;2023-03-20T06:03:40;9.00;99.90
10149;DHT22;5115;50.920;6.376;2023-03-20T06:06:06;9.00;99.90
10149;DHT22;5115;50.920;6.376;2023-03-20T06:08:32;8.90;99.90
10149;DHT22;5115;50.920;6.376;2023-03-20T06:10:57;8.90;99.90
10149;DHT22;5115;50.920;6.376;2023-03-20T06:13:23;8.90;99.90
10149;DHT22;5115;50.920;6.376;2023-03-20T06:15:48;8.90;99.90
10149;DHT22;5115;50.920;6.376;2023-03-20T06:18:14;8.90;99.90
10149;DHT22;5115;50.920;6.376;2023-03-20T06:20:40;9.00;99.90
10149;DHT22;5115;50.920;6.376;2023-03-20T06:23:05;9.00;99.90
10149;DHT22;5115;50.920;6.376;2023-03-20T06:25:31;9.00;99.90
10149;DHT22;5115;50.920;6.376;2023-03-20T06:27:57;9.00;99.90
10149;DHT22;5115;50.920;6.376;2023-03-20T06:30:23;9.00;99.90
10149;DHT22;5115;50.920;6.376;2023-03-20T06:32:48;9.00;99.90
10149;DHT22;5115;50.920;6.376;2023-03-20T06:35:14;9.00;99.90
10149;DHT22;5115;50.920;6.376;2023-03-20T06:37:39;9.00;99.90
10149;DHT22;5115;50.920;6.376;2023-03-20T06:40:06;9.00;99.90
10149;DHT22;5115;50.920;6.376;2023-03-20T06:42:32;9.10;99.90
10149;DHT22;5115;50.920;6.376;2023-03-20T06:44:57;9.10;99.90
10149;DHT22;5115;50.920;6.376;2023-03-20T06:47:23;9.10;99.90
10149;DHT22;5115;50.920;6.376;2023-03-20T06:49:48;9.20;99.90
10149;DHT22;5115;50.920;6.376;2023-03-20T06:52:15;9.40;99.90
10149;DHT22;5115;50.920;6.376;2023-03-20T06:54:42;9.40;99.90
10149;DHT22;5115;50.920;6.376;2023-03-20T06:57:07;9.50;99.90
10149;DHT22;5115;50.920;6.376;2023-03-20T06:59:33;9.60;99.90
10149;DHT22;5115;50.920;6.376;2023-03-20T07:01:58;9.60;99.90
10149;DHT22;5115;50.920;6.376;2023-03-20T07:04:24;9.70;99.90
10149;DHT22;5115;50.920;6.376;2023-03-20T07:06:50;9.70;99.90
10149;DHT22;5115;50.920;6.376;2023-03-20T07:09:16;9.70;99.90
10149;DHT22;5115;50.920;6.376;2023-03-20T07:11:42;9.50;99.90
10149;DHT22;5115;50.920;6.376;2023-03-20T07:14:08;9.50;99.90
10149;DHT22;5115;50.920;6.376;2023-03-20T07:16:33;9.50;99.90
10149;DHT22;5115;50.920;6.376;2023-03-20T07:18:59;9.50;99.90
10149;DHT22;5115;50.920;6.376;2023-03-20T07:21:25;9.50;99.90
10149;DHT22;5115;50.920;6.376;2023-03-20T07:23:50;9.50;99.90
10149;DHT22;5115;50.920;6.376;2023-03-20T07:26:17;9.70;99.90
10149;DHT22;5115;50.920;6.376;2023-03-20T07:28:42;10.20;99.90
10149;DHT22;5115;50.920;6.376;2023-03-20T07:31:17;9.70;99.90
10149;DHT22;5115;50.920;6.376;2023-03-20T07:33:43;9.70;99.90
10149;DHT22;5115;50.920;6.376;2023-03-20T07:36:09;9.70;99.90
10149;DHT22;5115;50.920;6.376;2023-03-20T07:38:35;9.70;99.90
10149;DHT22;5115;50.920;6.376;2023-03-20T07:41:00;9.70;99.90
10149;DHT22;5115;50.920;6.376;2023-03-20T07:43:27;9.70;99.90
10149;DHT22;5115;50.920;6.376;2023-03-20T07:45:52;9.80;99.90
10149;DHT22;5115;50.920;6.376;2023-03-20T07:48:18;9.80;99.90
10149;DHT22;5115;50.920;6.376;2023-03-20T07:50:43;9.90;99.90
10149;DHT22;5115;50.920;6.376;2023-03-20T07:53:09;10.00;99.90
10149;DHT22;5115;50.920;6.376;2023-03-20T07:55:35;10.00;99.90
10149;DHT22;5115;50.920;6.376;2023-03-20T07:58:00;10.00;99.90
10149;DHT22;5115;50.920;6.376;2023-03-20T08:00:26;10.10;99.90
10149;DHT22;5115;50.920;6.376;2023-03-20T08:02:51;10.00;99.90
10149;DHT22;5115;50.920;6.376;2023-03-20T08:05:17;10.00;99.90
10149;DHT22;5115;50.920;6.376;2023-03-20T08:07:42;10.00;99.90
10149;DHT22;5115;50.920;6.376;2023-03-20T08:10:09;10.00;99.90
10149;DHT22;5115;50.920;6.376;2023-03-20T08:12:35;10.30;99.90
10149;DHT22;5115;50.920;6.376;2023-03-20T08:15:01;10.10;99.90
10149;DHT22;5115;50.920;6.376;2023-03-20T08:17:26;10.20;99.90
10149;DHT22;5115;50.920;6.376;2023-03-20T08:19:52;10.20;99.90
10149;DHT22;5115;50.920;6.376;2023-03-20T08:22:17;10.40;99.90
10149;DHT22;5115;50.920;6.376;2023-03-20T08:24:43;10.50;99.90
10149;DHT22;5115;50.920;6.376;2023-03-20T08:27:08;10.40;99.90
10149;DHT22;5115;50.920;6.376;2023-03-20T08:29:34;10.40;99.90
10149;DHT22;5115;50.920;6.376;2023-03-20T08:32:00;10.40;99.90
10149;DHT22;5115;50.920;6.376;2023-03-20T08:34:26;10.50;99.90
10149;DHT22;5115;50.920;6.376;2023-03-20T08:36:51;10.60;99.90
10149;DHT22;5115;50.920;6.376;2023-03-20T08:39:17;10.60;99.90
10149;DHT22;5115;50.920;6.376;2023-03-20T08:41:43;10.80;99.90
10149;DHT22;5115;50.920;6.376;2023-03-20T08:44:10;10.80;99.90
10149;DHT22;5115;50.920;6.376;2023-03-20T08:46:36;10.40;99.90
10149;DHT22;5115;50.920;6.376;2023-03-20T08:49:02;11.10;99.90
10149;DHT22;5115;50.920;6.376;2023-03-20T08:51:29;11.30;99.90
10149;DHT22;5115;50.920;6.376;2023-03-20T08:53:55;12.10;99.90
10149;DHT22;5115;50.920;6.376;2023-03-20T08:56:21;11.50;99.90
10149;DHT22;5115;50.920;6.376;2023-03-20T08:58:47;11.40;99.90
10149;DHT22;5115;50.920;6.376;2023-03-20T09:01:12;11.40;99.90
10149;DHT22;5115;50.920;6.376;2023-03-20T09:03:40;11.50;99.90
10149;DHT22;5115;50.920;6.376;2023-03-20T09:06:07;11.30;99.90
10149;DHT22;5115;50.920;6.376;2023-03-20T09:08:33;11.20;99.90
10149;DHT22;5115;50.920;6.376;2023-03-20T09:10:59;11.10;99.90
10149;DHT22;5115;50.920;6.376;2023-03-20T09:13:24;11.00;99.90
10149;DHT22;5115;50.920;6.376;2023-03-20T09:15:51;10.90;99.90
10149;DHT22;5115;50.920;6.376;2023-03-20T09:18:18;10.90;99.90
10149;DHT22;5115;50.920;6.376;2023-03-20T09:20:44;11.00;99.90
10149;DHT22;5115;50.920;6.376;2023-03-20T09:23:09;11.00;99.90
10149;DHT22;5115;50.920;6.376;2023-03-20T09:25:35;10.80;99.90
10149;DHT22;5115;50.920;6.376;2023-03-20T09:28:01;10.80;99.90
10149;DHT22;5115;50.920;6.376;2023-03-20T09:30:26;10.80;99.90
10149;DHT22;5115;50.920;6.376;2023-03-20T09:32:52;10.80;99.90
10149;DHT22;5115;50.920;6.376;2023-03-20T09:35:17;10.80;99.90
10149;DHT22;5115;50.920;6.376;2023-03-20T09:37:43;10.80;99.90
10149;DHT22;5115;50.920;6.376;2023-03-20T09:40:21;10.80;99.90
10149;DHT22;5115;50.920;6.376;2023-03-20T09:43:04;10.70;99.90
10149;DHT22;5115;50.920;6.376;2023-03-20T09:48:39;10.80;99.90
10149;DHT22;5115;50.920;6.376;2023-03-20T09:51:27;10.90;99.90
10149;DHT22;5115;50.920;6.376;2023-03-20T09:54:00;11.10;99.90
10149;DHT22;5115;50.920;6.376;2023-03-20T09:56:28;11.10;99.90
10149;DHT22;5115;50.920;6.376;2023-03-20T09:59:00;11.20;99.90
10149;DHT22;5115;50.920;6.376;2023-03-20T10:01:36;11.10;99.90
10149;DHT22;5115;50.920;6.376;2023-03-20T10:04:10;11.10;99.90
10149;DHT22;5115;50.920;6.376;2023-03-20T10:06:36;11.10;99.90
10149;DHT22;5115;50.920;6.376;2023-03-20T10:09:13;11.10;99.90
10149;DHT22;5115;50.920;6.376;2023-03-20T10:19:56;11.10;99.90
10149;DHT22;5115;50.920;6.376;2023-03-20T10:22:34;11.00;99.90
10149;DHT22;5115;50.920;6.376;2023-03-20T10:25:22;11.00;99.90
10149;DHT22;5115;50.920;6.376;2023-03-20T10:28:32;10.90;99.90
10149;DHT22;5115;50.920;6.376;2023-03-20T10:33:47;11.30;99.90
10149;DHT22;5115;50.920;6.376;2023-03-20T10:41:57;10.80;99.90
10149;DHT22;5115;50.920;6.376;2023-03-20T10:46:58;10.90;99.90
10149;DHT22;5115;50.920;6.376;2023-03-20T10:49:40;10.90;99.90
10149;DHT22;5115;50.920;6.376;2023-03-20T10:52:14;10.90;99.90
10149;DHT22;5115;50.920;6.376;2023-03-20T10:54:43;10.80;99.90
10149;DHT22;5115;50.920;6.376;2023-03-20T10:57:24;10.60;99.90
10149;DHT22;5115;50.920;6.376;2023-03-20T10:59:52;10.60;99.90
10149;DHT22;5115;50.920;6.376;2023-03-20T11:02:20;10.50;99.90
10149;DHT22;5115;50.920;6.376;2023-03-20T11:04:46;10.30;99.90
10149;DHT22;5115;50.920;6.376;2023-03-20T11:12:39;10.30;99.90
10149;DHT22;5115;50.920;6.376;2023-03-20T11:15:31;10.30;99.90
10149;DHT22;5115;50.920;6.376;2023-03-20T11:18:05;10.40;99.90
10149;DHT22;5115;50.920;6.376;2023-03-20T11:20:36;10.40;99.90
10149;DHT22;5115;50.920;6.376;2023-03-20T11:23:06;10.40;99.90
10149;DHT22;5115;50.920;6.376;2023-03-20T11:25:35;10.30;99.90
10149;DHT22;5115;50.920;6.376;2023-03-20T11:30:44;10.00;99.90
10149;DHT22;5115;50.920;6.376;2023-03-20T11:33:10;9.80;99.90
10149;DHT22;5115;50.920;6.376;2023-03-20T11:35:35;9.60;99.90
10149;DHT22;5115;50.920;6.376;2023-03-20T11:38:13;9.60;99.90
10149;DHT22;5115;50.920;6.376;2023-03-20T11:40:39;9.60;99.90
10149;DHT22;5115;50.920;6.376;2023-03-20T11:43:20;9.60;99.90
10149;DHT22;5115;50.920;6.376;2023-03-20T11:45:49;9.70;99.90
10149;DHT22;5115;50.920;6.376;2023-03-20T11:48:21;9.70;99.90
10149;DHT22;5115;50.920;6.376;2023-03-20T11:51:03;9.70;99.90
10149;DHT22;5115;50.920;6.376;2023-03-20T11:53:39;9.80;99.90
10149;DHT22;5115;50.920;6.376;2023-03-20T11:56:13;9.80;99.90
10149;DHT22;5115;50.920;6.376;2023-03-20T11:58:53;9.80;99.90
10149;DHT22;5115;50.920;6.376;2023-03-20T12:01:20;10.00;99.90
10149;DHT22;5115;50.920;6.376;2023-03-20T12:03:59;10.00;99.90
10149;DHT22;5115;50.920;6.376;2023-03-20T12:06:52;10.10;99.90
10149;DHT22;5115;50.920;6.376;2023-03-20T12:09:23;10.30;99.90
10149;DHT22;5115;50.920;6.376;2023-03-20T12:11:58;10.60;99.90
10149;DHT22;5115;50.920;6.376;2023-03-20T12:14:30;10.70;99.90
10149;DHT22;5115;50.920;6.376;2023-03-20T12:19:48;10.80;99.90
10149;DHT22;5115;50.920;6.376;2023-03-20T12:22:28;10.90;99.90
10149;DHT22;5115;50.920;6.376;2023-03-20T12:25:08;11.00;99.90
10149;DHT22;5115;50.920;6.376;2023-03-20T12:27:45;11.00;99.90
10149;DHT22;5115;50.920;6.376;2023-03-20T12:30:31;11.00;99.90
10149;DHT22;5115;50.920;6.376;2023-03-20T12:33:13;11.10;99.90
10149;DHT22;5115;50.920;6.376;2023-03-20T12:35:45;11.10;99.90
10149;DHT22;5115;50.920;6.376;2023-03-20T12:38:30;11.20;99.90
10149;DHT22;5115;50.920;6.376;2023-03-20T12:41:09;11.20;99.90
10149;DHT22;5115;50.920;6.376;2023-03-20T12:46:39;11.20;99.90
10149;DHT22;5115;50.920;6.376;2023-03-20T12:54:42;11.40;99.90
10149;DHT22;5115;50.920;6.376;2023-03-20T13:03:16;11.60;99.90
10149;DHT22;5115;50.920;6.376;2023-03-20T13:05:50;11.70;99.90
10149;DHT22;5115;50.920;6.376;2023-03-20T13:17:20;11.70;99.90
10149;DHT22;5115;50.920;6.376;2023-03-20T13:20:12;11.70;99.90
10149;DHT22;5115;50.920;6.376;2023-03-20T13:23:05;11.60;99.90
10149;DHT22;5115;50.920;6.376;2023-03-20T13:28:32;11.70;99.90
10149;DHT22;5115;50.920;6.376;2023-03-20T13:33:46;11.60;99.90
10149;DHT22;5115;50.920;6.376;2023-03-20T13:36:30;11.50;99.90
10149;DHT22;5115;50.920;6.376;2023-03-20T13:39:05;11.60;99.90
10149;DHT22;5115;50.920;6.376;2023-03-20T13:41:35;11.60;99.90
10149;DHT22;5115;50.920;6.376;2023-03-20T13:44:03;11.50;99.90
10149;DHT22;5115;50.920;6.376;2023-03-20T13:46:37;11.60;99.90
10149;DHT22;5115;50.920;6.376;2023-03-20T13:49:15;11.70;99.90
10149;DHT22;5115;50.920;6.376;2023-03-20T13:52:08;11.70;99.90
10149;DHT22;5115;50.920;6.376;2023-03-20T14:05:44;12.00;99.90
10149;DHT22;5115;50.920;6.376;2023-03-20T14:13:35;12.10;99.90
10149;DHT22;5115;50.920;6.376;2023-03-20T14:16:03;12.20;99.90
10149;DHT22;5115;50.920;6.376;2023-03-20T14:18:31;12.10;99.90
10149;DHT22;5115;50.920;6.376;2023-03-20T14:20:59;12.00;99.90
10149;DHT22;5115;50.920;6.376;2023-03-20T14:23:35;12.00;99.90
10149;DHT22;5115;50.920;6.376;2023-03-20T14:26:24;12.00;99.90
10149;DHT22;5115;50.920;6.376;2023-03-20T14:31:35;12.00;99.90
10149;DHT22;5115;50.920;6.376;2023-03-20T14:39:33;12.10;99.90
10149;DHT22;5115;50.920;6.376;2023-03-20T14:45:25;12.30;99.90
10149;DHT22;5115;50.920;6.376;2023-03-20T14:48:15;12.40;99.90
10149;DHT22;5115;50.920;6.376;2023-03-20T14:51:04;12.40;99.90
10149;DHT22;5115;50.920;6.376;2023-03-20T14:53:30;12.40;99.90
10149;DHT22;5115;50.920;6.376;2023-03-20T14:56:09;12.50;99.90
10149;DHT22;5115;50.920;6.376;2023-03-20T15:01:07;12.50;99.90
10149;DHT22;5115;50.920;6.376;2023-03-20T15:03:39;12.40;99.90
10149;DHT22;5115;50.920;6.376;2023-03-20T15:06:06;12.40;99.90
10149;DHT22;5115;50.920;6.376;2023-03-20T15:08:35;12.40;99.90
10149;DHT22;5115;50.920;6.376;2023-03-20T15:11:06;12.60;99.90
10149;DHT22;5115;50.920;6.376;2023-03-20T15:13:34;12.50;99.90
10149;DHT22;5115;50.920;6.376;2023-03-20T15:16:06;12.40;99.90
10149;DHT22;5115;50.920;6.376;2023-03-20T15:18:40;12.40;99.90
10149;DHT22;5115;50.920;6.376;2023-03-20T15:21:47;12.50;99.90
10149;DHT22;5115;50.920;6.376;2023-03-20T15:24:22;12.50;99.90
10149;DHT22;5115;50.920;6.376;2023-03-20T15:26:55;12.70;99.90
10149;DHT22;5115;50.920;6.376;2023-03-20T15:29:22;12.70;99.90
10149;DHT22;5115;50.920;6.376;2023-03-20T15:31:54;12.60;99.90
10149;DHT22;5115;50.920;6.376;2023-03-20T15:34:23;12.50;99.90
10149;DHT22;5115;50.920;6.376;2023-03-20T15:36:51;12.60;99.90
10149;DHT22;5115;50.920;6.376;2023-03-20T15:39:18;12.40;99.90
10149;DHT22;5115;50.920;6.376;2023-03-20T15:41:47;12.70;99.90
10149;DHT22;5115;50.920;6.376;2023-03-20T15:47:22;12.30;99.90
10149;DHT22;5115;50.920;6.376;2023-03-20T15:49:55;12.20;99.90
10149;DHT22;5115;50.920;6.376;2023-03-20T15:52:31;12.20;99.90
10149;DHT22;5115;50.920;6.376;2023-03-20T15:55:02;12.10;99.90
10149;DHT22;5115;50.920;6.376;2023-03-20T15:57:39;12.00;99.90
10149;DHT22;5115;50.920;6.376;2023-03-20T16:00:12;12.00;99.90
10149;DHT22;5115;50.920;6.376;2023-03-20T16:02:40;12.10;99.90
10149;DHT22;5115;50.920;6.376;2023-03-20T16:05:11;12.10;99.90
10149;DHT22;5115;50.920;6.376;2023-03-20T16:07:37;12.10;99.90
10149;DHT22;5115;50.920;6.376;2023-03-20T16:10:15;12.10;99.90
10149;DHT22;5115;50.920;6.376;2023-03-20T16:12:50;12.20;99.90
10149;DHT22;5115;50.920;6.376;2023-03-20T16:15:19;12.80;99.90
10149;DHT22;5115;50.920;6.376;2023-03-20T16:17:45;12.20;99.90
10149;DHT22;5115;50.920;6.376;2023-03-20T16:20:15;12.30;99.90
10149;DHT22;5115;50.920;6.376;2023-03-20T16:22:42;12.30;99.90
10149;DHT22;5115;50.920;6.376;2023-03-20T16:25:13;12.30;99.90
10149;DHT22;5115;50.920;6.376;2023-03-20T16:27:40;12.30;99.90
10149;DHT22;5115;50.920;6.376;2023-03-20T16:32:42;12.30;99.90
10149;DHT22;5115;50.920;6.376;2023-03-20T16:35:26;12.30;99.90
10149;DHT22;5115;50.920;6.376;2023-03-20T16:37:56;12.30;99.90
10149;DHT22;5115;50.920;6.376;2023-03-20T16:43:09;12.30;99.90
10149;DHT22;5115;50.920;6.376;2023-03-20T16:45:36;12.30;99.90
10149;DHT22;5115;50.920;6.376;2023-03-20T16:48:32;12.20;99.90
10149;DHT22;5115;50.920;6.376;2023-03-20T16:53:47;12.20;99.90
10149;DHT22;5115;50.920;6.376;2023-03-20T16:56:23;12.20;99.90
10149;DHT22;5115;50.920;6.376;2023-03-20T16:58:49;12.00;99.90
10149;DHT22;5115;50.920;6.376;2023-03-20T17:01:19;12.00;99.90
10149;DHT22;5115;50.920;6.376;2023-03-20T17:03:51;11.90;99.90
10149;DHT22;5115;50.920;6.376;2023-03-20T17:08:51;11.80;99.90
10149;DHT22;5115;50.920;6.376;2023-03-20T17:11:37;11.80;99.90
10149;DHT22;5115;50.920;6.376;2023-03-20T17:14:03;11.70;99.90
10149;DHT22;5115;50.920;6.376;2023-03-20T17:16:30;11.70;99.90
10149;DHT22;5115;50.920;6.376;2023-03-20T17:19:06;11.70;99.90
10149;DHT22;5115;50.920;6.376;2023-03-20T17:21:32;11.60;99.90
10149;DHT22;5115;50.920;6.376;2023-03-20T17:23:58;11.60;99.90
10149;DHT22;5115;50.920;6.376;2023-03-20T17:26:24;11.60;99.90
10149;DHT22;5115;50.920;6.376;2023-03-20T17:28:50;11.60;99.90
10149;DHT22;5115;50.920;6.376;2023-03-20T17:31:16;11.60;99.90
10149;DHT22;5115;50.920;6.376;2023-03-20T17:33:43;11.60;99.90
10149;DHT22;5115;50.920;6.376;2023-03-20T17:36:30;11.60;99.90
10149;DHT22;5115;50.920;6.376;2023-03-20T17:38:57;11.60;99.90
10149;DHT22;5115;50.920;6.376;2023-03-20T17:41:24;11.60;99.90
10149;DHT22;5115;50.920;6.376;2023-03-20T17:43:50;11.50;99.90
10149;DHT22;5115;50.920;6.376;2023-03-20T17:46:20;11.50;99.90
10149;DHT22;5115;50.920;6.376;2023-03-20T17:48:47;11.50;99.90
10149;DHT22;5115;50.920;6.376;2023-03-20T17:51:13;11.40;99.90
10149;DHT22;5115;50.920;6.376;2023-03-20T17:53:39;11.40;99.90
10149;DHT22;5115;50.920;6.376;2023-03-20T17:56:12;11.30;99.90
10149;DHT22;5115;50.920;6.376;2023-03-20T17:58:38;11.30;99.90
10149;DHT22;5115;50.920;6.376;2023-03-20T18:01:05;11.30;99.90
10149;DHT22;5115;50.920;6.376;2023-03-20T18:03:31;11.30;99.90
10149;DHT22;5115;50.920;6.376;2023-03-20T18:05:57;11.30;99.90
10149;DHT22;5115;50.920;6.376;2023-03-20T18:08:22;11.20;99.90
10149;DHT22;5115;50.920;6.376;2023-03-20T18:10:50;11.20;99.90
10149;DHT22;5115;50.920;6.376;2023-03-20T18:13:17;11.20;99.90
10149;DHT22;5115;50.920;6.376;2023-03-20T18:15:46;11.20;99.90
10149;DHT22;5115;50.920;6.376;2023-03-20T18:18:12;11.20;99.90
10149;DHT22;5115;50.920;6.376;2023-03-20T18:20:39;11.20;99.90
10149;DHT22;5115;50.920;6.376;2023-03-20T18:23:06;11.20;99.90
10149;DHT22;5115;50.920;6.376;2023-03-20T18:25:32;11.20;99.90
10149;DHT22;5115;50.920;6.376;2023-03-20T18:27:59;11.10;99.90
10149;DHT22;5115;50.920;6.376;2023-03-20T18:30:29;11.20;99.90
10149;DHT22;5115;50.920;6.376;2023-03-20T18:32:55;11.10;99.90
10149;DHT22;5115;50.920;6.376;2023-03-20T18:35:21;11.10;99.90